Terminal Aerodrome Forecast
Issued by NWS

Home | Current Version | Previous Version | Text Only | Print | Product List | Glossary Off
Versions: 1 2 3 4 5 6 7 8 9 10 11 12 13 14 15 16

519
FTUS42 KMHX 260532
TAFOAJ
TAF
KOAJ 260532Z 2606/2706 00000KT P6SM SKC
     FM261000 00000KT 5SM BR SKC
     FM261200 00000KT P6SM SKC
     FM261900 16005KT P6SM SCT050
      AMD LTD TO CLD VIS AND WIND=

USA.gov is the U.S. government's official web portal to all federal, state and local government web resources and services.